createdAt,value
2022-10-25T00:01:24.754Z,13.00
2022-10-25T00:03:52.424Z,12.90
2022-10-25T00:06:20.487Z,13.00
2022-10-25T00:08:47.876Z,12.90
2022-10-25T00:11:21.881Z,12.90
2022-10-25T00:13:50.813Z,12.90
2022-10-25T00:16:21.742Z,12.80
2022-10-25T00:18:49.681Z,12.90
2022-10-25T00:21:17.043Z,12.80
2022-10-25T00:23:44.342Z,12.80
2022-10-25T00:26:12.117Z,12.80
2022-10-25T00:28:39.928Z,12.80
2022-10-25T00:31:10.169Z,12.80
2022-10-25T00:33:39.215Z,12.80
2022-10-25T00:36:19.330Z,12.80
2022-10-25T00:38:47.377Z,12.80
2022-10-25T00:41:17.928Z,12.70
2022-10-25T00:43:50.466Z,12.80
2022-10-25T00:46:20.911Z,12.80
2022-10-25T00:49:02.724Z,12.80
2022-10-25T00:51:43.054Z,12.70
2022-10-25T00:54:13.088Z,12.70
2022-10-25T00:56:43.844Z,12.70
2022-10-25T00:59:14.673Z,12.70
2022-10-25T01:01:42.467Z,12.70
2022-10-25T01:04:13.168Z,12.70
2022-10-25T01:06:43.215Z,12.70
2022-10-25T01:09:14.399Z,12.70
2022-10-25T01:11:41.731Z,12.70
2022-10-25T01:14:12.705Z,12.70
2022-10-25T01:16:42.994Z,12.70
2022-10-25T01:19:16.249Z,12.70
2022-10-25T01:21:48.248Z,12.70
2022-10-25T01:24:41.619Z,12.70
2022-10-25T01:27:19.791Z,12.70
2022-10-25T01:30:04.331Z,12.70
2022-10-25T01:32:50.891Z,12.70
2022-10-25T01:35:31.068Z,12.70
2022-10-25T01:38:19.798Z,12.80
2022-10-25T01:41:00.148Z,12.80
2022-10-25T01:43:39.461Z,12.90
2022-10-25T01:46:23.952Z,12.90
2022-10-25T01:49:00.106Z,13.00
2022-10-25T01:51:29.049Z,13.00
2022-10-25T01:53:56.987Z,13.10
2022-10-25T01:56:33.930Z,13.10
2022-10-25T01:59:19.305Z,13.10
2022-10-25T02:02:15.343Z,13.00
2022-10-25T02:04:51.793Z,13.00
2022-10-25T02:07:25.309Z,13.00
2022-10-25T02:09:52.634Z,13.00
2022-10-25T02:12:27.855Z,12.90
2022-10-25T02:15:19.105Z,12.90
2022-10-25T02:17:53.569Z,12.90
2022-10-25T02:20:25.507Z,12.80
2022-10-25T02:22:54.508Z,12.80
2022-10-25T02:25:22.853Z,12.80
2022-10-25T02:27:53.778Z,12.80
2022-10-25T02:30:21.574Z,12.80
2022-10-25T02:32:48.908Z,12.80
2022-10-25T02:35:18.836Z,12.80
2022-10-25T02:37:46.334Z,12.80
2022-10-25T02:40:14.480Z,12.80
2022-10-25T02:42:41.989Z,12.70
2022-10-25T02:45:09.683Z,12.70
2022-10-25T02:47:37.143Z,12.70
2022-10-25T02:50:05.062Z,12.70
2022-10-25T02:52:32.399Z,12.70
2022-10-25T02:54:59.735Z,12.70
2022-10-25T02:57:31.797Z,12.70
2022-10-25T02:59:59.092Z,12.70
2022-10-25T03:02:26.589Z,12.70
2022-10-25T03:04:53.830Z,12.60
2022-10-25T03:07:21.106Z,12.60
2022-10-25T03:09:48.421Z,12.60
2022-10-25T03:12:15.660Z,12.60
2022-10-25T03:14:42.901Z,12.60
2022-10-25T03:17:10.137Z,12.60
2022-10-25T03:19:37.485Z,12.60
2022-10-25T03:22:04.778Z,12.60
2022-10-25T03:24:32.022Z,12.60
2022-10-25T03:26:59.427Z,12.60
2022-10-25T03:29:26.697Z,12.60
2022-10-25T03:31:53.983Z,12.60
2022-10-25T03:34:21.275Z,12.60
2022-10-25T03:36:48.571Z,12.60
2022-10-25T03:39:15.857Z,12.50
2022-10-25T03:41:43.181Z,12.60
2022-10-25T03:44:10.462Z,12.60
2022-10-25T03:46:37.755Z,12.60
2022-10-25T03:49:05.049Z,12.60
2022-10-25T03:51:32.315Z,12.60
2022-10-25T03:53:59.631Z,12.60
2022-10-25T03:56:27.127Z,12.60
2022-10-25T03:58:54.482Z,12.70
2022-10-25T04:01:21.876Z,12.60
2022-10-25T04:03:49.218Z,12.60
2022-10-25T04:06:16.506Z,12.60
2022-10-25T04:08:43.778Z,12.70
2022-10-25T04:11:11.043Z,12.60
2022-10-25T04:13:38.342Z,12.60
2022-10-25T04:16:07.467Z,12.70
2022-10-25T04:18:35.205Z,12.70
2022-10-25T04:21:02.470Z,12.60
2022-10-25T04:23:31.362Z,12.60
2022-10-25T04:25:58.759Z,12.60
2022-10-25T04:28:26.709Z,12.60
2022-10-25T04:30:54.060Z,12.60
2022-10-25T04:33:21.366Z,12.60
2022-10-25T04:35:56.953Z,12.60
2022-10-25T04:38:24.922Z,12.60
2022-10-25T04:40:59.858Z,12.60
2022-10-25T04:43:28.282Z,12.60
2022-10-25T04:45:55.827Z,12.60
2022-10-25T04:48:23.082Z,12.60
2022-10-25T04:50:50.372Z,12.60
2022-10-25T04:53:17.625Z,12.60
2022-10-25T04:55:45.055Z,12.60
2022-10-25T04:58:12.354Z,12.50
2022-10-25T05:00:39.646Z,12.50
2022-10-25T05:03:10.849Z,12.50
2022-10-25T05:05:40.671Z,12.60
2022-10-25T05:08:07.955Z,12.60
2022-10-25T05:10:35.610Z,12.60
2022-10-25T05:13:03.207Z,12.60
2022-10-25T05:15:30.531Z,12.60
2022-10-25T05:17:58.810Z,12.70
2022-10-25T05:20:27.466Z,12.60
2022-10-25T05:22:54.737Z,12.70
2022-10-25T05:25:22.014Z,12.70
2022-10-25T05:27:49.311Z,12.70
2022-10-25T05:30:16.714Z,12.70
2022-10-25T05:32:44.059Z,12.70
2022-10-25T05:35:11.393Z,12.70
2022-10-25T05:37:38.658Z,12.70
2022-10-25T05:40:06.501Z,12.80
2022-10-25T05:42:33.809Z,12.80
2022-10-25T05:45:01.085Z,12.80
2022-10-25T05:47:28.383Z,12.90
2022-10-25T05:49:55.627Z,12.90
2022-10-25T05:52:22.981Z,12.90
2022-10-25T05:54:50.269Z,13.00
2022-10-25T05:57:17.528Z,13.00
2022-10-25T05:59:44.764Z,13.10
2022-10-25T06:02:12.514Z,13.10
2022-10-25T06:04:39.802Z,13.10
2022-10-25T06:07:07.026Z,13.10
2022-10-25T06:09:34.287Z,13.10
2022-10-25T06:12:03.006Z,13.10
2022-10-25T06:14:32.211Z,13.20
2022-10-25T06:16:59.434Z,13.20
2022-10-25T06:19:27.449Z,13.20
2022-10-25T06:21:55.204Z,13.20
2022-10-25T06:24:22.563Z,13.20
2022-10-25T06:26:50.064Z,13.20
2022-10-25T06:29:17.465Z,13.20
2022-10-25T06:31:45.013Z,13.20
2022-10-25T06:34:12.256Z,13.10
2022-10-25T06:36:39.535Z,13.10
2022-10-25T06:39:07.093Z,13.10
2022-10-25T06:41:37.125Z,13.00
2022-10-25T06:44:06.790Z,13.00
2022-10-25T06:46:57.914Z,13.00
2022-10-25T06:49:23.851Z,13.00
2022-10-25T06:51:51.211Z,13.00
2022-10-25T06:54:19.900Z,13.00
2022-10-25T06:56:48.179Z,13.00
2022-10-25T06:59:15.542Z,13.00
2022-10-25T07:01:42.994Z,13.10
2022-10-25T07:04:10.357Z,13.20
2022-10-25T07:06:37.960Z,13.30
2022-10-25T07:09:06.573Z,13.30
2022-10-25T07:11:34.227Z,13.30
2022-10-25T07:14:04.196Z,13.40
2022-10-25T07:16:31.616Z,13.30
2022-10-25T07:19:03.641Z,13.30
2022-10-25T07:21:32.886Z,13.40
2022-10-25T07:24:00.536Z,13.40
2022-10-25T07:26:33.366Z,13.40
2022-10-25T07:29:03.045Z,13.40
2022-10-25T07:31:37.011Z,13.40
2022-10-25T07:34:05.878Z,13.40
2022-10-25T07:36:33.815Z,13.50
2022-10-25T07:39:01.357Z,13.50
2022-10-25T07:41:28.747Z,13.60
2022-10-25T07:43:56.476Z,13.50
2022-10-25T07:46:24.135Z,13.60
2022-10-25T07:48:52.611Z,13.60
2022-10-25T07:51:20.285Z,13.60
2022-10-25T07:53:47.727Z,13.60
2022-10-25T07:56:20.562Z,13.60
2022-10-25T07:58:54.112Z,13.60
2022-10-25T08:01:26.662Z,13.60
2022-10-25T08:03:55.233Z,13.60
2022-10-25T08:06:24.500Z,13.60
2022-10-25T08:08:52.677Z,13.60
2022-10-25T08:11:20.357Z,13.60
2022-10-25T08:13:50.008Z,13.60
2022-10-25T08:16:17.942Z,13.60
2022-10-25T08:18:45.399Z,13.70
2022-10-25T08:21:13.139Z,13.70
2022-10-25T08:23:55.124Z,13.70
2022-10-25T08:26:26.270Z,13.80
2022-10-25T08:28:53.679Z,13.80
2022-10-25T08:31:21.118Z,13.90
2022-10-25T08:33:48.484Z,13.90
2022-10-25T08:36:15.827Z,13.90
2022-10-25T08:38:43.398Z,14.00
2022-10-25T08:41:27.230Z,14.10
2022-10-25T08:44:19.018Z,14.10
2022-10-25T08:46:55.596Z,14.10
2022-10-25T08:49:35.745Z,14.20
2022-10-25T08:52:05.288Z,14.30
2022-10-25T08:54:37.830Z,14.30
2022-10-25T08:57:17.488Z,14.50
2022-10-25T08:59:49.699Z,14.40
2022-10-25T09:02:41.512Z,15.10
2022-10-25T09:05:28.853Z,14.50
2022-10-25T09:08:33.775Z,14.60
2022-10-25T09:11:28.651Z,14.70
2022-10-25T09:13:58.808Z,14.80
2022-10-25T09:16:46.704Z,14.80
2022-10-25T09:19:20.584Z,14.90
2022-10-25T09:21:57.276Z,15.00
2022-10-25T09:24:29.428Z,15.00
2022-10-25T09:27:27.639Z,15.10
2022-10-25T09:30:07.190Z,15.30
2022-10-25T09:32:39.638Z,15.40
2022-10-25T09:35:17.658Z,15.40
2022-10-25T09:37:52.074Z,15.40
2022-10-25T09:40:23.441Z,15.50
2022-10-25T09:42:59.180Z,15.60
2022-10-25T09:45:33.523Z,15.60
2022-10-25T09:48:36.789Z,16.00
2022-10-25T09:51:24.440Z,15.70
2022-10-25T09:53:53.246Z,15.50
2022-10-25T09:56:20.556Z,15.70
2022-10-25T10:01:28.512Z,16.00
2022-10-25T10:04:06.010Z,16.10
2022-10-25T10:06:35.203Z,16.20
2022-10-25T10:09:09.208Z,16.00
2022-10-25T10:11:37.214Z,16.20
2022-10-25T10:14:12.639Z,16.30
2022-10-25T10:16:44.530Z,16.30
2022-10-25T10:19:26.733Z,16.40
2022-10-25T10:22:14.933Z,16.30
2022-10-25T10:24:43.900Z,16.30
2022-10-25T10:27:24.286Z,16.30
2022-10-25T10:30:05.862Z,16.30
2022-10-25T10:32:34.348Z,16.30
2022-10-25T10:35:05.015Z,16.30
2022-10-25T10:37:33.909Z,16.20
2022-10-25T10:40:24.525Z,16.10
2022-10-25T10:45:25.483Z,16.20
2022-10-25T10:50:24.358Z,16.60
2022-10-25T10:52:58.183Z,16.50
2022-10-25T10:55:46.836Z,16.60
2022-10-25T10:58:30.985Z,16.50
2022-10-25T11:01:10.024Z,16.40
2022-10-25T11:03:59.181Z,16.40
2022-10-25T11:06:34.271Z,16.40
2022-10-25T11:09:15.453Z,16.30
2022-10-25T11:11:44.249Z,16.30
2022-10-25T11:14:14.111Z,16.20
2022-10-25T11:16:50.177Z,15.60
2022-10-25T11:19:38.593Z,16.00
2022-10-25T11:22:36.522Z,15.80
2022-10-25T11:25:14.040Z,15.90
2022-10-25T11:28:03.328Z,15.80
2022-10-25T11:30:47.060Z,16.00
2022-10-25T11:33:22.024Z,16.10
2022-10-25T11:36:07.543Z,16.30
2022-10-25T11:38:41.071Z,16.70
2022-10-25T11:41:38.541Z,17.00
2022-10-25T11:44:27.479Z,17.10
2022-10-25T11:47:35.271Z,18.80
2022-10-25T11:50:35.901Z,16.30
2022-10-25T11:53:18.870Z,16.60
2022-10-25T11:55:56.503Z,16.10
2022-10-25T11:58:41.120Z,16.50
2022-10-25T12:01:29.781Z,16.50
2022-10-25T12:04:42.294Z,16.50
2022-10-25T12:07:31.466Z,16.70
2022-10-25T12:10:14.975Z,16.90
2022-10-25T12:12:54.408Z,16.90
2022-10-25T12:15:26.619Z,17.00
2022-10-25T12:17:54.590Z,16.90
2022-10-25T12:20:28.302Z,16.80
2022-10-25T12:22:59.596Z,16.70
2022-10-25T12:25:36.702Z,16.60
2022-10-25T12:28:25.698Z,16.70
2022-10-25T12:31:06.092Z,16.40
2022-10-25T12:33:41.608Z,16.40
2022-10-25T12:36:24.024Z,16.60
2022-10-25T12:41:26.168Z,16.50
2022-10-25T12:44:26.517Z,16.50
2022-10-25T12:47:21.718Z,16.60
2022-10-25T12:50:04.127Z,16.70
2022-10-25T12:52:44.455Z,16.80
2022-10-25T12:55:38.100Z,16.90
2022-10-25T12:58:14.408Z,17.10
2022-10-25T13:01:27.771Z,17.30
2022-10-25T13:04:19.119Z,17.70
2022-10-25T13:06:48.930Z,18.10
2022-10-25T13:09:22.190Z,18.30
2022-10-25T13:12:30.637Z,18.40
2022-10-25T13:14:59.788Z,18.90
2022-10-25T13:17:27.271Z,19.60
2022-10-25T13:20:22.737Z,19.90
2022-10-25T13:22:50.291Z,20.40
2022-10-25T13:25:37.614Z,20.60
2022-10-25T13:28:13.938Z,20.40
2022-10-25T13:30:42.219Z,20.40
2022-10-25T13:33:19.233Z,20.30
2022-10-25T13:35:49.522Z,20.10
2022-10-25T13:38:33.270Z,19.80
2022-10-25T13:41:10.050Z,19.90
2022-10-25T13:43:58.083Z,19.60
2022-10-25T13:46:38.326Z,19.70
2022-10-25T13:49:29.921Z,19.70
2022-10-25T13:52:05.194Z,19.80
2022-10-25T13:54:47.858Z,19.80
2022-10-25T13:57:53.072Z,20.00
2022-10-25T14:00:37.429Z,20.10
2022-10-25T14:03:12.986Z,20.30
2022-10-25T14:05:55.459Z,20.50
2022-10-25T14:08:40.449Z,20.70
2022-10-25T14:11:21.623Z,21.00
2022-10-25T14:14:10.845Z,21.10
2022-10-25T14:16:52.877Z,21.30
2022-10-25T14:19:37.720Z,21.40
2022-10-25T14:22:13.773Z,21.40
2022-10-25T14:24:43.691Z,21.60
2022-10-25T14:27:31.240Z,21.80
2022-10-25T14:30:25.382Z,22.10
2022-10-25T14:33:04.753Z,22.10
2022-10-25T14:35:45.211Z,21.90
2022-10-25T14:38:20.823Z,21.10
2022-10-25T14:41:03.382Z,21.00
2022-10-25T14:43:36.521Z,21.00
2022-10-25T14:46:09.581Z,20.80
2022-10-25T14:48:36.945Z,20.50
2022-10-25T14:51:12.685Z,20.70
2022-10-25T14:54:07.573Z,20.50
2022-10-25T14:56:40.021Z,20.60
2022-10-25T14:59:27.632Z,21.10
2022-10-25T15:02:13.765Z,20.90
2022-10-25T15:04:44.514Z,21.00
2022-10-25T15:07:42.434Z,21.20
2022-10-25T15:10:31.606Z,22.00
2022-10-25T15:13:12.812Z,22.00
2022-10-25T15:15:44.725Z,22.50
2022-10-25T15:18:28.197Z,21.30
2022-10-25T15:21:13.840Z,21.60
2022-10-25T15:23:43.977Z,21.00
2022-10-25T15:26:24.852Z,21.30
2022-10-25T15:28:55.841Z,20.80
2022-10-25T15:31:29.130Z,20.90
2022-10-25T15:34:01.929Z,20.50
2022-10-25T15:36:31.263Z,20.60
2022-10-25T15:39:19.623Z,20.20
2022-10-25T15:41:46.893Z,19.90
2022-10-25T15:44:14.137Z,19.60
2022-10-25T15:46:41.517Z,19.30
2022-10-25T15:49:12.315Z,18.80
2022-10-25T15:51:43.364Z,18.70
2022-10-25T15:54:21.687Z,18.50
2022-10-25T15:56:50.321Z,18.20
2022-10-25T15:59:17.950Z,18.10
2022-10-25T16:01:49.165Z,18.20
2022-10-25T16:04:19.113Z,18.30
2022-10-25T16:09:14.676Z,18.30
2022-10-25T16:11:47.112Z,18.30
2022-10-25T16:14:24.433Z,18.10
2022-10-25T16:16:52.190Z,18.00
2022-10-25T16:19:22.042Z,17.90
2022-10-25T16:21:49.457Z,18.20
2022-10-25T16:24:16.734Z,17.50
2022-10-25T16:26:48.518Z,17.20
2022-10-25T16:29:21.694Z,17.30
2022-10-25T16:31:48.990Z,17.00
2022-10-25T16:34:17.838Z,17.00
2022-10-25T16:36:46.411Z,16.90
2022-10-25T16:39:13.963Z,16.80
2022-10-25T16:41:43.960Z,16.40
2022-10-25T16:44:12.942Z,17.00
2022-10-25T16:46:40.480Z,16.20
2022-10-25T16:49:09.637Z,16.30
2022-10-25T16:51:38.462Z,16.30
2022-10-25T16:54:06.267Z,16.20
2022-10-25T16:56:33.785Z,16.10
2022-10-25T16:59:01.121Z,16.00
2022-10-25T17:01:34.583Z,16.00
2022-10-25T17:04:04.380Z,15.80
2022-10-25T17:06:47.215Z,15.80
2022-10-25T17:09:14.704Z,15.80
2022-10-25T17:14:10.718Z,15.60
2022-10-25T17:16:43.431Z,15.50
2022-10-25T17:19:11.166Z,15.50
2022-10-25T17:21:39.834Z,15.40
2022-10-25T17:26:37.593Z,15.30
2022-10-25T17:29:05.334Z,15.40
2022-10-25T17:34:01.559Z,15.20
2022-10-25T17:38:59.992Z,15.00
2022-10-25T17:43:56.869Z,15.00
2022-10-25T17:46:29.202Z,14.90
2022-10-25T17:49:03.122Z,14.90
2022-10-25T17:51:31.033Z,14.90
2022-10-25T17:53:58.501Z,14.80
2022-10-25T17:56:27.267Z,14.80
2022-10-25T17:58:55.561Z,14.80
2022-10-25T18:01:26.512Z,14.80
2022-10-25T18:03:54.946Z,14.80
2022-10-25T18:06:24.316Z,14.80
2022-10-25T18:08:57.092Z,14.60
2022-10-25T18:11:28.234Z,14.80
2022-10-25T18:13:58.367Z,14.80
2022-10-25T18:18:56.452Z,14.80
2022-10-25T18:24:03.078Z,14.80
2022-10-25T18:26:30.851Z,14.80
2022-10-25T18:28:58.792Z,14.80
2022-10-25T18:31:27.174Z,14.80
2022-10-25T18:33:55.557Z,14.80
2022-10-25T18:36:23.142Z,14.80
2022-10-25T18:41:27.725Z,14.80
2022-10-25T18:46:24.674Z,14.90
2022-10-25T18:48:53.515Z,15.10
2022-10-25T18:51:22.725Z,14.90
2022-10-25T18:53:54.452Z,14.90
2022-10-25T18:56:22.535Z,14.90
2022-10-25T18:58:50.567Z,14.90
2022-10-25T19:01:22.361Z,14.90
2022-10-25T19:03:50.964Z,15.00
2022-10-25T19:21:15.002Z,15.00
2022-10-25T19:23:44.731Z,15.30
2022-10-25T19:26:21.797Z,14.80
2022-10-25T19:28:59.117Z,15.00
2022-10-25T19:31:27.585Z,15.10
2022-10-25T19:38:53.222Z,15.20
2022-10-25T19:41:25.856Z,15.10
2022-10-25T19:43:54.076Z,15.10
2022-10-25T19:46:21.562Z,15.60
2022-10-25T19:48:48.917Z,14.80
2022-10-25T19:51:18.914Z,15.10
2022-10-25T19:56:16.727Z,15.10
2022-10-25T19:58:44.695Z,15.00
2022-10-25T20:01:17.905Z,15.30
2022-10-25T20:03:48.227Z,15.20
2022-10-25T20:06:21.613Z,15.00
2022-10-25T20:08:53.060Z,15.00
2022-10-25T20:11:21.803Z,15.00
2022-10-25T20:13:54.144Z,15.00
2022-10-25T20:16:22.784Z,15.00
2022-10-25T20:18:50.149Z,15.00
2022-10-25T20:21:20.770Z,15.00
2022-10-25T20:23:52.789Z,15.00
2022-10-25T20:26:25.653Z,15.00
2022-10-25T20:28:55.024Z,15.00
2022-10-25T20:31:23.572Z,15.00
2022-10-25T20:33:51.762Z,15.00
2022-10-25T20:36:19.614Z,15.30
2022-10-25T20:38:47.225Z,14.90
2022-10-25T20:41:17.667Z,15.20
2022-10-25T20:43:50.908Z,15.00
2022-10-25T20:46:19.306Z,15.30
2022-10-25T20:51:16.042Z,15.00
2022-10-25T20:53:45.630Z,15.00
2022-10-25T20:56:13.549Z,15.10
2022-10-25T20:58:41.317Z,15.70
2022-10-25T21:06:07.803Z,15.20
2022-10-25T21:08:36.957Z,15.10
2022-10-25T21:11:06.827Z,15.10
2022-10-25T21:13:35.447Z,15.20
2022-10-25T21:16:14.521Z,15.70
2022-10-25T21:18:42.965Z,15.10
2022-10-25T21:21:15.430Z,15.20
2022-10-25T21:23:42.686Z,15.40
2022-10-25T21:26:10.340Z,15.20
2022-10-25T21:28:39.661Z,15.00
2022-10-25T21:31:10.447Z,15.20
2022-10-25T21:33:38.524Z,15.20
2022-10-25T21:36:11.636Z,15.00
2022-10-25T21:38:39.719Z,15.20
2022-10-25T21:41:11.771Z,15.10
2022-10-25T21:43:45.587Z,15.30
2022-10-25T21:46:13.923Z,15.40
2022-10-25T21:48:42.063Z,15.30
2022-10-25T21:53:37.004Z,15.50
2022-10-25T21:56:05.766Z,15.40
2022-10-25T22:03:30.302Z,15.00
2022-10-25T22:11:00.746Z,15.20
2022-10-25T22:16:01.481Z,15.30
2022-10-25T22:18:29.299Z,15.40
2022-10-25T22:21:05.761Z,15.60
2022-10-25T22:23:33.832Z,15.10
2022-10-25T22:26:03.088Z,15.30
2022-10-25T22:30:59.943Z,15.30
2022-10-25T22:35:55.275Z,15.60
2022-10-25T22:41:01.651Z,15.30
2022-10-25T22:46:00.610Z,15.40
2022-10-25T22:48:36.412Z,16.50
2022-10-25T22:51:04.518Z,15.80
2022-10-25T22:56:02.883Z,15.50
2022-10-25T22:58:34.410Z,15.50
2022-10-25T23:01:07.450Z,15.40
2022-10-25T23:03:46.265Z,15.40
2022-10-25T23:06:18.420Z,15.30
2022-10-25T23:08:46.211Z,15.40
2022-10-25T23:11:16.057Z,15.40
2022-10-25T23:13:43.523Z,15.40
2022-10-25T23:16:12.461Z,15.40
2022-10-25T23:18:40.373Z,15.50
2022-10-25T23:21:12.180Z,15.50
2022-10-25T23:23:39.713Z,15.50
2022-10-25T23:26:10.346Z,15.50
2022-10-25T23:28:37.669Z,15.50
2022-10-25T23:31:10.037Z,15.50
2022-10-25T23:33:37.907Z,15.50
2022-10-25T23:36:16.944Z,15.50
2022-10-25T23:38:44.527Z,15.50
2022-10-25T23:41:12.602Z,15.50
2022-10-25T23:43:40.397Z,15.50
2022-10-25T23:46:08.153Z,15.50
2022-10-25T23:48:35.578Z,15.50
2022-10-25T23:51:05.956Z,15.70
2022-10-25T23:56:01.470Z,15.60
2022-10-25T23:58:29.038Z,15.50
